Vail Mills, New York
Current Conditions -  °F | °C
As of 11:15 PM on Wednesday 28 Jan 2015 (Local Time) from KNY0 Reporting Station
Clear Clear  
Wind Chill: -4°   Ceiling: Unl
Heat Index:   Visibility: 10mi
Dew Point: -7°   Wind: 8mph
Humidity: 50%   Direction: 260°W
Pressure: 30.26"   Gusts: NA
Location:  43.0744°N, 74.1473°W
Report Text: KNY0 290415Z AUTO 26007KT 10SM CLR M13/M22 A3026 RMK AO2 T11311216
Loading
Personal Weather Stations






























Interactive Weather Map New forecast layout! Learn more

10-Day Weather Forecast

Advertisements
Track Severe Weather on mobile